sensor_id;sensor_type;location;lat;lon;timestamp;temperature;humidity
3818;DHT22;1924;48.078;11.516;2022-09-09T00:01:10;15.80;99.90
3818;DHT22;1924;48.078;11.516;2022-09-09T00:03:42;15.70;99.90
3818;DHT22;1924;48.078;11.516;2022-09-09T00:06:20;15.80;99.90
3818;DHT22;1924;48.078;11.516;2022-09-09T00:08:57;15.70;99.90
3818;DHT22;1924;48.078;11.516;2022-09-09T00:11:30;15.70;99.90
3818;DHT22;1924;48.078;11.516;2022-09-09T00:14:03;15.80;99.90
3818;DHT22;1924;48.078;11.516;2022-09-09T00:16:36;15.80;99.90
3818;DHT22;1924;48.078;11.516;2022-09-09T00:19:11;15.80;99.90
3818;DHT22;1924;48.078;11.516;2022-09-09T00:21:47;15.80;99.90
3818;DHT22;1924;48.078;11.516;2022-09-09T00:24:24;15.90;99.90
3818;DHT22;1924;48.078;11.516;2022-09-09T00:26:57;15.90;99.90
3818;DHT22;1924;48.078;11.516;2022-09-09T00:29:33;15.90;99.90
3818;DHT22;1924;48.078;11.516;2022-09-09T00:32:12;15.90;99.90
3818;DHT22;1924;48.078;11.516;2022-09-09T00:34:47;15.90;99.90
3818;DHT22;1924;48.078;11.516;2022-09-09T00:37:19;15.90;99.90
3818;DHT22;1924;48.078;11.516;2022-09-09T00:39:46;16.00;99.90
3818;DHT22;1924;48.078;11.516;2022-09-09T00:42:15;16.10;99.90
3818;DHT22;1924;48.078;11.516;2022-09-09T00:44:53;16.10;99.90
3818;DHT22;1924;48.078;11.516;2022-09-09T00:47:38;16.10;99.90
3818;DHT22;1924;48.078;11.516;2022-09-09T00:50:21;16.00;99.90
3818;DHT22;1924;48.078;11.516;2022-09-09T00:52:59;16.00;99.90
3818;DHT22;1924;48.078;11.516;2022-09-09T00:55:34;16.00;99.90
3818;DHT22;1924;48.078;11.516;2022-09-09T00:58:07;16.00;99.90
3818;DHT22;1924;48.078;11.516;2022-09-09T01:00:42;16.00;99.90
3818;DHT22;1924;48.078;11.516;2022-09-09T01:03:22;16.00;99.90
3818;DHT22;1924;48.078;11.516;2022-09-09T01:05:59;16.00;99.90
3818;DHT22;1924;48.078;11.516;2022-09-09T01:09:10;16.00;99.90
3818;DHT22;1924;48.078;11.516;2022-09-09T01:11:47;16.10;99.90
3818;DHT22;1924;48.078;11.516;2022-09-09T01:14:24;16.20;99.90
3818;DHT22;1924;48.078;11.516;2022-09-09T01:16:55;16.20;99.90
3818;DHT22;1924;48.078;11.516;2022-09-09T01:19:31;16.20;99.90
3818;DHT22;1924;48.078;11.516;2022-09-09T01:22:03;16.30;99.90
3818;DHT22;1924;48.078;11.516;2022-09-09T01:24:40;16.30;99.90
3818;DHT22;1924;48.078;11.516;2022-09-09T01:27:10;16.30;99.90
3818;DHT22;1924;48.078;11.516;2022-09-09T01:29:39;16.30;99.90
3818;DHT22;1924;48.078;11.516;2022-09-09T01:32:41;16.30;99.90
3818;DHT22;1924;48.078;11.516;2022-09-09T01:35:11;16.30;99.90
3818;DHT22;1924;48.078;11.516;2022-09-09T01:37:39;16.30;99.90
3818;DHT22;1924;48.078;11.516;2022-09-09T01:40:09;16.30;99.90
3818;DHT22;1924;48.078;11.516;2022-09-09T01:42:37;16.30;99.90
3818;DHT22;1924;48.078;11.516;2022-09-09T01:45:05;16.30;99.90
3818;DHT22;1924;48.078;11.516;2022-09-09T01:47:32;16.30;99.90
3818;DHT22;1924;48.078;11.516;2022-09-09T01:50:00;16.30;99.90
3818;DHT22;1924;48.078;11.516;2022-09-09T01:52:28;16.30;99.90
3818;DHT22;1924;48.078;11.516;2022-09-09T01:54:55;16.30;99.90
3818;DHT22;1924;48.078;11.516;2022-09-09T01:57:26;16.20;99.90
3818;DHT22;1924;48.078;11.516;2022-09-09T02:00:03;16.20;99.90
3818;DHT22;1924;48.078;11.516;2022-09-09T02:02:34;16.20;99.90
3818;DHT22;1924;48.078;11.516;2022-09-09T02:05:09;16.20;99.90
3818;DHT22;1924;48.078;11.516;2022-09-09T02:07:39;16.20;99.90
3818;DHT22;1924;48.078;11.516;2022-09-09T02:10:11;16.20;99.90
3818;DHT22;1924;48.078;11.516;2022-09-09T02:12:42;16.10;99.90
3818;DHT22;1924;48.078;11.516;2022-09-09T02:15:17;16.10;99.90
3818;DHT22;1924;48.078;11.516;2022-09-09T02:17:46;16.10;99.90
3818;DHT22;1924;48.078;11.516;2022-09-09T02:20:16;16.10;99.90
3818;DHT22;1924;48.078;11.516;2022-09-09T02:22:46;16.10;99.90
3818;DHT22;1924;48.078;11.516;2022-09-09T02:25:17;16.20;99.90
3818;DHT22;1924;48.078;11.516;2022-09-09T02:27:45;16.20;99.90
3818;DHT22;1924;48.078;11.516;2022-09-09T02:30:15;16.20;99.90
3818;DHT22;1924;48.078;11.516;2022-09-09T02:32:43;16.20;99.90
3818;DHT22;1924;48.078;11.516;2022-09-09T02:35:15;16.10;99.90
3818;DHT22;1924;48.078;11.516;2022-09-09T02:37:45;16.10;99.90
3818;DHT22;1924;48.078;11.516;2022-09-09T02:40:13;16.10;99.90
3818;DHT22;1924;48.078;11.516;2022-09-09T02:42:43;16.10;99.90
3818;DHT22;1924;48.078;11.516;2022-09-09T02:45:11;16.20;99.90
3818;DHT22;1924;48.078;11.516;2022-09-09T02:47:45;16.20;99.90
3818;DHT22;1924;48.078;11.516;2022-09-09T02:50:18;16.30;99.90
3818;DHT22;1924;48.078;11.516;2022-09-09T02:52:55;16.30;99.90
3818;DHT22;1924;48.078;11.516;2022-09-09T02:55:32;16.30;99.90
3818;DHT22;1924;48.078;11.516;2022-09-09T02:58:03;16.30;99.90
3818;DHT22;1924;48.078;11.516;2022-09-09T03:00:33;16.30;99.90
3818;DHT22;1924;48.078;11.516;2022-09-09T03:03:03;16.30;99.90
3818;DHT22;1924;48.078;11.516;2022-09-09T03:05:30;16.30;99.90
3818;DHT22;1924;48.078;11.516;2022-09-09T03:07:57;16.20;99.90
3818;DHT22;1924;48.078;11.516;2022-09-09T03:10:24;16.20;99.90
3818;DHT22;1924;48.078;11.516;2022-09-09T03:12:51;16.30;99.90
3818;DHT22;1924;48.078;11.516;2022-09-09T03:15:18;16.30;99.90
3818;DHT22;1924;48.078;11.516;2022-09-09T03:17:45;16.30;99.90
3818;DHT22;1924;48.078;11.516;2022-09-09T03:20:13;16.20;99.90
3818;DHT22;1924;48.078;11.516;2022-09-09T03:22:40;16.20;99.90
3818;DHT22;1924;48.078;11.516;2022-09-09T03:25:08;16.20;99.90
3818;DHT22;1924;48.078;11.516;2022-09-09T03:27:34;16.10;99.90
3818;DHT22;1924;48.078;11.516;2022-09-09T03:30:01;16.10;99.90
3818;DHT22;1924;48.078;11.516;2022-09-09T03:32:29;16.10;99.90
3818;DHT22;1924;48.078;11.516;2022-09-09T03:34:57;16.10;99.90
3818;DHT22;1924;48.078;11.516;2022-09-09T03:37:25;16.10;99.90
3818;DHT22;1924;48.078;11.516;2022-09-09T03:39:52;16.00;99.90
3818;DHT22;1924;48.078;11.516;2022-09-09T03:42:20;15.90;99.90
3818;DHT22;1924;48.078;11.516;2022-09-09T03:44:47;15.90;99.90
3818;DHT22;1924;48.078;11.516;2022-09-09T03:47:16;15.90;99.90
3818;DHT22;1924;48.078;11.516;2022-09-09T03:49:43;15.90;99.90
3818;DHT22;1924;48.078;11.516;2022-09-09T03:52:10;15.80;99.90
3818;DHT22;1924;48.078;11.516;2022-09-09T03:54:38;15.90;99.90
3818;DHT22;1924;48.078;11.516;2022-09-09T03:57:05;15.90;99.90
3818;DHT22;1924;48.078;11.516;2022-09-09T03:59:31;15.80;99.90
3818;DHT22;1924;48.078;11.516;2022-09-09T04:01:58;15.80;99.90
3818;DHT22;1924;48.078;11.516;2022-09-09T04:04:25;15.90;99.90
3818;DHT22;1924;48.078;11.516;2022-09-09T04:06:52;15.80;99.90
3818;DHT22;1924;48.078;11.516;2022-09-09T04:09:19;15.80;99.90
3818;DHT22;1924;48.078;11.516;2022-09-09T04:11:47;15.80;99.90
3818;DHT22;1924;48.078;11.516;2022-09-09T04:14:15;15.80;99.90
3818;DHT22;1924;48.078;11.516;2022-09-09T04:16:41;15.80;99.90
3818;DHT22;1924;48.078;11.516;2022-09-09T04:19:10;15.80;99.90
3818;DHT22;1924;48.078;11.516;2022-09-09T04:21:38;15.90;99.90
3818;DHT22;1924;48.078;11.516;2022-09-09T04:24:06;15.90;99.90
3818;DHT22;1924;48.078;11.516;2022-09-09T04:26:33;15.90;99.90
3818;DHT22;1924;48.078;11.516;2022-09-09T04:29:01;15.90;99.90
3818;DHT22;1924;48.078;11.516;2022-09-09T04:31:29;15.80;99.90
3818;DHT22;1924;48.078;11.516;2022-09-09T04:33:56;15.80;99.90
3818;DHT22;1924;48.078;11.516;2022-09-09T04:36:23;15.80;99.90
3818;DHT22;1924;48.078;11.516;2022-09-09T04:38:49;15.80;99.90
3818;DHT22;1924;48.078;11.516;2022-09-09T04:41:16;15.80;99.90
3818;DHT22;1924;48.078;11.516;2022-09-09T04:43:43;15.70;99.90
3818;DHT22;1924;48.078;11.516;2022-09-09T04:46:12;15.80;99.90
3818;DHT22;1924;48.078;11.516;2022-09-09T04:48:38;15.70;99.90
3818;DHT22;1924;48.078;11.516;2022-09-09T04:51:08;15.80;99.90
3818;DHT22;1924;48.078;11.516;2022-09-09T04:53:35;15.70;99.90
3818;DHT22;1924;48.078;11.516;2022-09-09T04:56:03;15.70;99.90
3818;DHT22;1924;48.078;11.516;2022-09-09T04:58:29;15.70;99.90
3818;DHT22;1924;48.078;11.516;2022-09-09T05:01:03;15.70;99.90
3818;DHT22;1924;48.078;11.516;2022-09-09T05:03:32;15.70;99.90
3818;DHT22;1924;48.078;11.516;2022-09-09T05:06:06;15.70;99.90
3818;DHT22;1924;48.078;11.516;2022-09-09T05:08:34;15.80;99.90
3818;DHT22;1924;48.078;11.516;2022-09-09T05:11:01;15.80;99.90
3818;DHT22;1924;48.078;11.516;2022-09-09T05:13:28;15.80;99.90
3818;DHT22;1924;48.078;11.516;2022-09-09T05:15:56;15.80;99.90
3818;DHT22;1924;48.078;11.516;2022-09-09T05:18:23;15.80;99.90
3818;DHT22;1924;48.078;11.516;2022-09-09T05:20:51;15.80;99.90
3818;DHT22;1924;48.078;11.516;2022-09-09T05:23:18;15.80;99.90
3818;DHT22;1924;48.078;11.516;2022-09-09T05:25:54;15.80;99.90
3818;DHT22;1924;48.078;11.516;2022-09-09T05:28:22;15.80;99.90
3818;DHT22;1924;48.078;11.516;2022-09-09T05:30:55;15.90;99.90
3818;DHT22;1924;48.078;11.516;2022-09-09T05:33:22;15.90;99.90
3818;DHT22;1924;48.078;11.516;2022-09-09T05:35:56;16.00;99.90
3818;DHT22;1924;48.078;11.516;2022-09-09T05:38:23;16.00;99.90
3818;DHT22;1924;48.078;11.516;2022-09-09T05:40:51;15.90;99.90
3818;DHT22;1924;48.078;11.516;2022-09-09T05:43:17;16.00;99.90
3818;DHT22;1924;48.078;11.516;2022-09-09T05:45:45;16.00;99.90
3818;DHT22;1924;48.078;11.516;2022-09-09T05:48:13;15.90;99.90
3818;DHT22;1924;48.078;11.516;2022-09-09T05:50:40;16.00;99.90
3818;DHT22;1924;48.078;11.516;2022-09-09T05:53:09;16.00;99.90
3818;DHT22;1924;48.078;11.516;2022-09-09T05:55:36;16.20;99.90
3818;DHT22;1924;48.078;11.516;2022-09-09T05:58:03;16.10;99.90
3818;DHT22;1924;48.078;11.516;2022-09-09T06:00:29;16.20;99.90
3818;DHT22;1924;48.078;11.516;2022-09-09T06:02:59;16.30;99.90
3818;DHT22;1924;48.078;11.516;2022-09-09T06:05:26;16.30;99.90
3818;DHT22;1924;48.078;11.516;2022-09-09T06:07:54;16.30;99.90
3818;DHT22;1924;48.078;11.516;2022-09-09T06:10:22;16.30;99.90
3818;DHT22;1924;48.078;11.516;2022-09-09T06:12:52;16.30;99.90
3818;DHT22;1924;48.078;11.516;2022-09-09T06:15:20;16.40;99.90
3818;DHT22;1924;48.078;11.516;2022-09-09T06:17:46;16.50;99.90
3818;DHT22;1924;48.078;11.516;2022-09-09T06:20:14;16.50;99.90
3818;DHT22;1924;48.078;11.516;2022-09-09T06:22:41;16.50;99.90
3818;DHT22;1924;48.078;11.516;2022-09-09T06:25:08;16.50;99.90
3818;DHT22;1924;48.078;11.516;2022-09-09T06:27:39;16.50;99.90
3818;DHT22;1924;48.078;11.516;2022-09-09T06:30:10;16.40;99.90
3818;DHT22;1924;48.078;11.516;2022-09-09T06:32:37;16.40;99.90
3818;DHT22;1924;48.078;11.516;2022-09-09T06:35:05;16.30;99.90
3818;DHT22;1924;48.078;11.516;2022-09-09T06:37:33;16.30;99.90
3818;DHT22;1924;48.078;11.516;2022-09-09T06:40:00;16.30;99.90
3818;DHT22;1924;48.078;11.516;2022-09-09T06:42:27;16.30;99.90
3818;DHT22;1924;48.078;11.516;2022-09-09T06:44:55;16.30;99.90
3818;DHT22;1924;48.078;11.516;2022-09-09T06:47:21;16.30;99.90
3818;DHT22;1924;48.078;11.516;2022-09-09T06:49:50;16.40;99.90
3818;DHT22;1924;48.078;11.516;2022-09-09T06:52:16;16.40;99.90
3818;DHT22;1924;48.078;11.516;2022-09-09T06:54:44;16.50;99.90
3818;DHT22;1924;48.078;11.516;2022-09-09T06:57:10;16.50;99.90
3818;DHT22;1924;48.078;11.516;2022-09-09T06:59:37;16.50;99.90
3818;DHT22;1924;48.078;11.516;2022-09-09T07:02:06;16.60;99.90
3818;DHT22;1924;48.078;11.516;2022-09-09T07:04:34;16.50;99.90
3818;DHT22;1924;48.078;11.516;2022-09-09T07:07:00;16.50;99.90
3818;DHT22;1924;48.078;11.516;2022-09-09T07:09:27;16.50;99.90
3818;DHT22;1924;48.078;11.516;2022-09-09T07:11:55;16.50;99.90
3818;DHT22;1924;48.078;11.516;2022-09-09T07:14:28;16.50;99.90
3818;DHT22;1924;48.078;11.516;2022-09-09T07:16:58;16.50;99.90
3818;DHT22;1924;48.078;11.516;2022-09-09T07:19:27;16.50;99.90
3818;DHT22;1924;48.078;11.516;2022-09-09T07:21:54;16.50;99.90
3818;DHT22;1924;48.078;11.516;2022-09-09T07:24:20;16.40;99.90
3818;DHT22;1924;48.078;11.516;2022-09-09T07:26:47;16.40;99.90
3818;DHT22;1924;48.078;11.516;2022-09-09T07:29:14;16.50;99.90
3818;DHT22;1924;48.078;11.516;2022-09-09T07:31:41;16.50;99.90
3818;DHT22;1924;48.078;11.516;2022-09-09T07:34:08;16.60;99.90
3818;DHT22;1924;48.078;11.516;2022-09-09T07:36:39;16.60;99.90
3818;DHT22;1924;48.078;11.516;2022-09-09T07:39:09;16.70;99.90
3818;DHT22;1924;48.078;11.516;2022-09-09T07:41:38;16.70;99.90
3818;DHT22;1924;48.078;11.516;2022-09-09T07:44:06;16.70;99.90
3818;DHT22;1924;48.078;11.516;2022-09-09T07:46:34;16.80;99.90
3818;DHT22;1924;48.078;11.516;2022-09-09T07:49:02;16.90;99.90
3818;DHT22;1924;48.078;11.516;2022-09-09T07:51:30;16.90;99.90
3818;DHT22;1924;48.078;11.516;2022-09-09T07:54:00;16.90;99.90
3818;DHT22;1924;48.078;11.516;2022-09-09T07:56:33;16.80;99.90
3818;DHT22;1924;48.078;11.516;2022-09-09T07:59:01;16.90;99.90
3818;DHT22;1924;48.078;11.516;2022-09-09T08:01:31;17.00;99.90
3818;DHT22;1924;48.078;11.516;2022-09-09T08:04:00;17.00;99.90
3818;DHT22;1924;48.078;11.516;2022-09-09T08:06:28;17.00;99.90
3818;DHT22;1924;48.078;11.516;2022-09-09T08:08:55;17.10;99.90
3818;DHT22;1924;48.078;11.516;2022-09-09T08:11:24;17.20;99.90
3818;DHT22;1924;48.078;11.516;2022-09-09T08:13:51;17.20;99.90
3818;DHT22;1924;48.078;11.516;2022-09-09T08:16:22;17.30;99.90
3818;DHT22;1924;48.078;11.516;2022-09-09T08:18:49;17.30;99.90
3818;DHT22;1924;48.078;11.516;2022-09-09T08:21:18;17.40;99.90
3818;DHT22;1924;48.078;11.516;2022-09-09T08:23:46;17.40;99.90
3818;DHT22;1924;48.078;11.516;2022-09-09T08:26:15;17.40;99.90
3818;DHT22;1924;48.078;11.516;2022-09-09T08:28:44;17.40;99.90
3818;DHT22;1924;48.078;11.516;2022-09-09T08:31:12;17.50;99.90
3818;DHT22;1924;48.078;11.516;2022-09-09T08:33:40;17.60;99.90
3818;DHT22;1924;48.078;11.516;2022-09-09T08:36:09;17.50;99.90
3818;DHT22;1924;48.078;11.516;2022-09-09T08:38:37;17.50;99.90
3818;DHT22;1924;48.078;11.516;2022-09-09T08:41:30;17.50;99.90
3818;DHT22;1924;48.078;11.516;2022-09-09T08:44:06;17.40;99.90
3818;DHT22;1924;48.078;11.516;2022-09-09T08:46:42;17.30;99.90
3818;DHT22;1924;48.078;11.516;2022-09-09T08:49:20;17.30;99.90
3818;DHT22;1924;48.078;11.516;2022-09-09T08:51:51;17.20;99.90
3818;DHT22;1924;48.078;11.516;2022-09-09T08:54:21;17.20;99.90
3818;DHT22;1924;48.078;11.516;2022-09-09T08:56:48;17.10;99.90
3818;DHT22;1924;48.078;11.516;2022-09-09T08:59:18;17.10;99.90
3818;DHT22;1924;48.078;11.516;2022-09-09T09:02:02;17.00;99.90
3818;DHT22;1924;48.078;11.516;2022-09-09T09:04:45;17.00;99.90
3818;DHT22;1924;48.078;11.516;2022-09-09T09:07:24;17.10;99.90
3818;DHT22;1924;48.078;11.516;2022-09-09T09:10:02;17.10;99.90
3818;DHT22;1924;48.078;11.516;2022-09-09T09:12:37;17.20;99.90
3818;DHT22;1924;48.078;11.516;2022-09-09T09:15:11;17.30;99.90
3818;DHT22;1924;48.078;11.516;2022-09-09T09:17:41;17.30;99.90
3818;DHT22;1924;48.078;11.516;2022-09-09T09:20:12;17.10;99.90
3818;DHT22;1924;48.078;11.516;2022-09-09T09:22:47;17.20;99.90
3818;DHT22;1924;48.078;11.516;2022-09-09T09:25:17;17.30;99.90
3818;DHT22;1924;48.078;11.516;2022-09-09T09:27:49;17.40;99.90
3818;DHT22;1924;48.078;11.516;2022-09-09T09:30:20;17.50;99.90
3818;DHT22;1924;48.078;11.516;2022-09-09T09:32:52;17.50;99.90
3818;DHT22;1924;48.078;11.516;2022-09-09T09:35:20;17.50;99.90
3818;DHT22;1924;48.078;11.516;2022-09-09T09:37:47;17.50;99.90
3818;DHT22;1924;48.078;11.516;2022-09-09T09:40:16;17.50;99.90
3818;DHT22;1924;48.078;11.516;2022-09-09T09:42:51;17.50;99.90
3818;DHT22;1924;48.078;11.516;2022-09-09T09:45:28;17.50;99.90
3818;DHT22;1924;48.078;11.516;2022-09-09T09:48:01;17.40;99.90
3818;DHT22;1924;48.078;11.516;2022-09-09T09:50:29;17.40;99.90
3818;DHT22;1924;48.078;11.516;2022-09-09T09:52:58;17.40;99.90
3818;DHT22;1924;48.078;11.516;2022-09-09T09:55:26;17.50;99.90
3818;DHT22;1924;48.078;11.516;2022-09-09T09:58:01;17.40;99.90
3818;DHT22;1924;48.078;11.516;2022-09-09T10:00:29;17.40;99.90
3818;DHT22;1924;48.078;11.516;2022-09-09T10:02:56;17.40;99.90
3818;DHT22;1924;48.078;11.516;2022-09-09T10:05:24;17.30;99.90
3818;DHT22;1924;48.078;11.516;2022-09-09T10:08:03;17.30;99.90
3818;DHT22;1924;48.078;11.516;2022-09-09T10:10:42;17.30;99.90
3818;DHT22;1924;48.078;11.516;2022-09-09T10:13:18;17.30;99.90
3818;DHT22;1924;48.078;11.516;2022-09-09T10:15:54;17.20;99.90
3818;DHT22;1924;48.078;11.516;2022-09-09T10:18:39;17.20;99.90
3818;DHT22;1924;48.078;11.516;2022-09-09T10:21:19;17.10;99.90
3818;DHT22;1924;48.078;11.516;2022-09-09T10:24:28;17.10;99.90
3818;DHT22;1924;48.078;11.516;2022-09-09T10:27:01;17.10;99.90
3818;DHT22;1924;48.078;11.516;2022-09-09T10:29:47;17.10;99.90
3818;DHT22;1924;48.078;11.516;2022-09-09T10:32:33;17.10;99.90
3818;DHT22;1924;48.078;11.516;2022-09-09T10:35:09;17.00;99.90
3818;DHT22;1924;48.078;11.516;2022-09-09T10:37:48;17.10;99.90
3818;DHT22;1924;48.078;11.516;2022-09-09T10:40:27;17.10;99.90
3818;DHT22;1924;48.078;11.516;2022-09-09T10:43:04;17.20;99.90
3818;DHT22;1924;48.078;11.516;2022-09-09T10:45:44;17.10;99.90
3818;DHT22;1924;48.078;11.516;2022-09-09T10:48:35;17.20;99.90
3818;DHT22;1924;48.078;11.516;2022-09-09T10:51:17;17.30;99.90
3818;DHT22;1924;48.078;11.516;2022-09-09T10:53:53;17.40;99.90
3818;DHT22;1924;48.078;11.516;2022-09-09T10:56:23;17.50;99.90
3818;DHT22;1924;48.078;11.516;2022-09-09T10:58:53;17.50;99.90
3818;DHT22;1924;48.078;11.516;2022-09-09T11:01:25;17.50;99.90
3818;DHT22;1924;48.078;11.516;2022-09-09T11:03:58;17.50;99.90
3818;DHT22;1924;48.078;11.516;2022-09-09T11:06:32;17.60;99.90
3818;DHT22;1924;48.078;11.516;2022-09-09T11:09:02;17.70;99.90
3818;DHT22;1924;48.078;11.516;2022-09-09T11:11:36;17.80;99.90
3818;DHT22;1924;48.078;11.516;2022-09-09T11:14:08;17.80;99.90
3818;DHT22;1924;48.078;11.516;2022-09-09T11:16:40;17.80;99.90
3818;DHT22;1924;48.078;11.516;2022-09-09T11:19:14;17.90;99.90
3818;DHT22;1924;48.078;11.516;2022-09-09T11:21:46;17.90;99.90
3818;DHT22;1924;48.078;11.516;2022-09-09T11:24:16;17.90;99.90
3818;DHT22;1924;48.078;11.516;2022-09-09T11:26:48;18.00;99.90
3818;DHT22;1924;48.078;11.516;2022-09-09T11:32:32;18.00;99.90
3818;DHT22;1924;48.078;11.516;2022-09-09T11:35:19;18.10;99.90
3818;DHT22;1924;48.078;11.516;2022-09-09T11:38:07;18.10;99.90
3818;DHT22;1924;48.078;11.516;2022-09-09T11:40:37;18.10;99.90
3818;DHT22;1924;48.078;11.516;2022-09-09T11:43:09;18.10;99.90
3818;DHT22;1924;48.078;11.516;2022-09-09T11:45:38;18.10;99.90
3818;DHT22;1924;48.078;11.516;2022-09-09T11:48:22;18.10;99.90
3818;DHT22;1924;48.078;11.516;2022-09-09T11:50:59;18.00;99.90
3818;DHT22;1924;48.078;11.516;2022-09-09T11:53:26;18.10;99.90
3818;DHT22;1924;48.078;11.516;2022-09-09T11:56:09;18.10;99.90
3818;DHT22;1924;48.078;11.516;2022-09-09T11:58:42;18.20;99.90
3818;DHT22;1924;48.078;11.516;2022-09-09T12:01:33;18.30;99.90
3818;DHT22;1924;48.078;11.516;2022-09-09T12:04:12;18.30;99.90
3818;DHT22;1924;48.078;11.516;2022-09-09T12:06:46;18.30;99.90
3818;DHT22;1924;48.078;11.516;2022-09-09T12:09:21;18.30;99.90
3818;DHT22;1924;48.078;11.516;2022-09-09T12:11:49;18.20;99.90
3818;DHT22;1924;48.078;11.516;2022-09-09T12:14:21;18.30;99.90
3818;DHT22;1924;48.078;11.516;2022-09-09T12:16:48;18.30;99.90
3818;DHT22;1924;48.078;11.516;2022-09-09T12:19:18;18.30;99.90
3818;DHT22;1924;48.078;11.516;2022-09-09T12:21:51;18.30;99.90
3818;DHT22;1924;48.078;11.516;2022-09-09T12:24:25;18.50;99.90
3818;DHT22;1924;48.078;11.516;2022-09-09T12:26:59;18.50;99.90
3818;DHT22;1924;48.078;11.516;2022-09-09T12:29:34;18.50;99.90
3818;DHT22;1924;48.078;11.516;2022-09-09T12:32:07;18.50;99.90
3818;DHT22;1924;48.078;11.516;2022-09-09T12:34:39;18.50;99.90
3818;DHT22;1924;48.078;11.516;2022-09-09T12:37:26;18.50;99.90
3818;DHT22;1924;48.078;11.516;2022-09-09T12:39:55;18.50;99.90
3818;DHT22;1924;48.078;11.516;2022-09-09T12:42:23;18.50;99.90
3818;DHT22;1924;48.078;11.516;2022-09-09T12:44:52;18.50;99.90
3818;DHT22;1924;48.078;11.516;2022-09-09T12:47:21;18.50;99.90
3818;DHT22;1924;48.078;11.516;2022-09-09T12:49:49;18.60;99.90
3818;DHT22;1924;48.078;11.516;2022-09-09T12:52:21;18.70;99.90
3818;DHT22;1924;48.078;11.516;2022-09-09T12:54:51;18.80;99.90
3818;DHT22;1924;48.078;11.516;2022-09-09T12:57:19;18.80;99.90
3818;DHT22;1924;48.078;11.516;2022-09-09T12:59:48;18.90;99.90
3818;DHT22;1924;48.078;11.516;2022-09-09T13:02:20;18.90;99.90
3818;DHT22;1924;48.078;11.516;2022-09-09T13:04:48;18.80;99.90
3818;DHT22;1924;48.078;11.516;2022-09-09T13:07:16;18.80;99.90
3818;DHT22;1924;48.078;11.516;2022-09-09T13:09:43;18.80;99.90
3818;DHT22;1924;48.078;11.516;2022-09-09T13:12:14;18.70;99.90
3818;DHT22;1924;48.078;11.516;2022-09-09T13:14:44;18.70;99.90
3818;DHT22;1924;48.078;11.516;2022-09-09T13:17:19;18.60;99.90
3818;DHT22;1924;48.078;11.516;2022-09-09T13:19:46;18.70;99.90
3818;DHT22;1924;48.078;11.516;2022-09-09T13:22:21;18.70;99.90
3818;DHT22;1924;48.078;11.516;2022-09-09T13:24:59;18.80;99.90
3818;DHT22;1924;48.078;11.516;2022-09-09T13:27:31;18.90;99.90
3818;DHT22;1924;48.078;11.516;2022-09-09T13:29:59;19.00;99.90
3818;DHT22;1924;48.078;11.516;2022-09-09T13:32:28;19.10;99.90
3818;DHT22;1924;48.078;11.516;2022-09-09T13:34:58;19.00;99.90
3818;DHT22;1924;48.078;11.516;2022-09-09T13:37:30;18.90;99.90
3818;DHT22;1924;48.078;11.516;2022-09-09T13:39:59;19.10;99.90
3818;DHT22;1924;48.078;11.516;2022-09-09T13:42:27;19.20;99.90
3818;DHT22;1924;48.078;11.516;2022-09-09T13:44:56;19.30;99.90
3818;DHT22;1924;48.078;11.516;2022-09-09T13:47:30;19.20;99.90
3818;DHT22;1924;48.078;11.516;2022-09-09T13:49:58;19.00;99.90
3818;DHT22;1924;48.078;11.516;2022-09-09T13:52:31;18.90;99.90
3818;DHT22;1924;48.078;11.516;2022-09-09T13:54:58;18.90;99.90
3818;DHT22;1924;48.078;11.516;2022-09-09T13:57:25;18.70;99.90
3818;DHT22;1924;48.078;11.516;2022-09-09T13:59:53;18.60;99.90
3818;DHT22;1924;48.078;11.516;2022-09-09T14:02:23;18.50;99.90
3818;DHT22;1924;48.078;11.516;2022-09-09T14:04:50;18.50;99.90
3818;DHT22;1924;48.078;11.516;2022-09-09T14:07:20;18.50;99.90
3818;DHT22;1924;48.078;11.516;2022-09-09T14:09:47;18.50;99.90
3818;DHT22;1924;48.078;11.516;2022-09-09T14:12:16;18.50;99.90
3818;DHT22;1924;48.078;11.516;2022-09-09T14:14:43;18.50;99.90
3818;DHT22;1924;48.078;11.516;2022-09-09T14:17:10;18.60;99.90
3818;DHT22;1924;48.078;11.516;2022-09-09T14:19:38;18.50;99.90
3818;DHT22;1924;48.078;11.516;2022-09-09T14:22:05;18.50;99.90
3818;DHT22;1924;48.078;11.516;2022-09-09T14:24:32;18.50;99.90
3818;DHT22;1924;48.078;11.516;2022-09-09T14:26:58;18.40;99.90
3818;DHT22;1924;48.078;11.516;2022-09-09T14:29:25;18.60;99.90
3818;DHT22;1924;48.078;11.516;2022-09-09T14:31:52;18.40;99.90
3818;DHT22;1924;48.078;11.516;2022-09-09T14:34:19;18.40;99.90
3818;DHT22;1924;48.078;11.516;2022-09-09T14:36:47;18.30;99.90
3818;DHT22;1924;48.078;11.516;2022-09-09T14:39:13;18.20;99.90
3818;DHT22;1924;48.078;11.516;2022-09-09T14:41:40;18.20;99.90
3818;DHT22;1924;48.078;11.516;2022-09-09T14:44:07;18.20;99.90
3818;DHT22;1924;48.078;11.516;2022-09-09T14:46:34;18.20;99.90
3818;DHT22;1924;48.078;11.516;2022-09-09T14:49:01;18.20;99.90
3818;DHT22;1924;48.078;11.516;2022-09-09T14:51:27;18.20;99.90
3818;DHT22;1924;48.078;11.516;2022-09-09T14:53:57;18.10;99.90
3818;DHT22;1924;48.078;11.516;2022-09-09T14:56:26;18.10;99.90
3818;DHT22;1924;48.078;11.516;2022-09-09T14:58:53;18.10;99.90
3818;DHT22;1924;48.078;11.516;2022-09-09T15:01:21;18.10;99.90
3818;DHT22;1924;48.078;11.516;2022-09-09T15:03:52;18.10;99.90
3818;DHT22;1924;48.078;11.516;2022-09-09T15:06:22;18.10;99.90
3818;DHT22;1924;48.078;11.516;2022-09-09T15:08:51;18.20;99.90
3818;DHT22;1924;48.078;11.516;2022-09-09T15:11:20;18.10;99.90
3818;DHT22;1924;48.078;11.516;2022-09-09T15:13:47;18.10;99.90
3818;DHT22;1924;48.078;11.516;2022-09-09T15:16:18;18.00;99.90
3818;DHT22;1924;48.078;11.516;2022-09-09T15:18:46;18.00;99.90
3818;DHT22;1924;48.078;11.516;2022-09-09T15:21:18;18.00;99.90
3818;DHT22;1924;48.078;11.516;2022-09-09T15:23:46;18.00;99.90
3818;DHT22;1924;48.078;11.516;2022-09-09T15:26:13;17.90;99.90
3818;DHT22;1924;48.078;11.516;2022-09-09T15:28:43;17.90;99.90
3818;DHT22;1924;48.078;11.516;2022-09-09T15:31:16;17.90;99.90
3818;DHT22;1924;48.078;11.516;2022-09-09T15:33:46;17.90;99.90
3818;DHT22;1924;48.078;11.516;2022-09-09T15:36:15;17.80;99.90
3818;DHT22;1924;48.078;11.516;2022-09-09T15:38:42;17.80;99.90
3818;DHT22;1924;48.078;11.516;2022-09-09T15:41:09;17.80;99.90
3818;DHT22;1924;48.078;11.516;2022-09-09T15:43:36;17.80;99.90
3818;DHT22;1924;48.078;11.516;2022-09-09T15:46:22;17.70;99.90
3818;DHT22;1924;48.078;11.516;2022-09-09T15:48:52;17.80;99.90
3818;DHT22;1924;48.078;11.516;2022-09-09T15:51:19;17.90;99.90
3818;DHT22;1924;48.078;11.516;2022-09-09T15:53:45;18.00;99.90
3818;DHT22;1924;48.078;11.516;2022-09-09T15:56:13;17.90;99.90
3818;DHT22;1924;48.078;11.516;2022-09-09T15:58:40;17.90;99.90
3818;DHT22;1924;48.078;11.516;2022-09-09T16:01:10;17.90;99.90
3818;DHT22;1924;48.078;11.516;2022-09-09T16:03:40;17.90;99.90
3818;DHT22;1924;48.078;11.516;2022-09-09T16:06:08;17.80;99.90
3818;DHT22;1924;48.078;11.516;2022-09-09T16:08:37;17.80;99.90
3818;DHT22;1924;48.078;11.516;2022-09-09T16:11:05;17.70;99.90